sensor_id;sensor_type;location;lat;lon;timestamp;pressure;altitude;pressure_sealevel;temperature;humidity
63115;BME280;49208;50.874;6.466;2023-02-21T07:02:15;100896.06;;;5.73;100.00
63115;BME280;49208;50.874;6.466;2023-02-21T07:04:42;100896.97;;;5.72;100.00
63115;BME280;49208;50.874;6.466;2023-02-21T07:07:08;100900.47;;;5.74;100.00
63115;BME280;49208;50.874;6.466;2023-02-21T07:09:33;100896.06;;;5.73;100.00
63115;BME280;49208;50.874;6.466;2023-02-21T07:11:58;100895.19;;;5.74;100.00
63115;BME280;49208;50.874;6.466;2023-02-21T07:14:24;100903.97;;;5.73;100.00
63115;BME280;49208;50.874;6.466;2023-02-21T07:16:49;100903.13;;;5.71;100.00
63115;BME280;49208;50.874;6.466;2023-02-21T07:19:15;100915.44;;;5.72;100.00
63115;BME280;49208;50.874;6.466;2023-02-21T07:21:42;100907.53;;;5.72;100.00
63115;BME280;49208;50.874;6.466;2023-02-21T07:24:07;100901.38;;;5.71;100.00
63115;BME280;49208;50.874;6.466;2023-02-21T07:26:33;100906.66;;;5.71;100.00
63115;BME280;49208;50.874;6.466;2023-02-21T07:28:58;100904.88;;;5.73;100.00
63115;BME280;49208;50.874;6.466;2023-02-21T07:31:23;100900.47;;;5.75;100.00
63115;BME280;49208;50.874;6.466;2023-02-21T07:33:49;100901.34;;;5.74;100.00
63115;BME280;49208;50.874;6.466;2023-02-21T07:36:14;100905.75;;;5.75;100.00
63115;BME280;49208;50.874;6.466;2023-02-21T07:38:40;100906.63;;;5.74;100.00
63115;BME280;49208;50.874;6.466;2023-02-21T07:41:05;100908.38;;;5.75;100.00
63115;BME280;49208;50.874;6.466;2023-02-21T07:43:31;100899.56;;;5.75;100.00
63115;BME280;49208;50.874;6.466;2023-02-21T07:45:56;100902.19;;;5.76;100.00
63115;BME280;49208;50.874;6.466;2023-02-21T07:48:22;100913.63;;;5.80;100.00
63115;BME280;49208;50.874;6.466;2023-02-21T07:50:47;100910.94;;;5.83;100.00
63115;BME280;49208;50.874;6.466;2023-02-21T07:53:14;100914.44;;;5.86;100.00
63115;BME280;49208;50.874;6.466;2023-02-21T07:55:40;100915.31;;;5.88;100.00
63115;BME280;49208;50.874;6.466;2023-02-21T07:58:05;100915.31;;;5.90;100.00
63115;BME280;49208;50.874;6.466;2023-02-21T08:00:31;100910.00;;;5.92;100.00
63115;BME280;49208;50.874;6.466;2023-02-21T08:02:57;100910.88;;;5.95;100.00
63115;BME280;49208;50.874;6.466;2023-02-21T08:05:22;100916.09;;;6.01;100.00
63115;BME280;49208;50.874;6.466;2023-02-21T08:07:48;100911.66;;;6.08;100.00
63115;BME280;49208;50.874;6.466;2023-02-21T08:10:19;100912.47;;;6.15;100.00
63115;BME280;49208;50.874;6.466;2023-02-21T08:12:45;100915.94;;;6.18;100.00
63115;BME280;49208;50.874;6.466;2023-02-21T08:15:10;100914.16;;;6.20;100.00
63115;BME280;49208;50.874;6.466;2023-02-21T08:17:36;100919.38;;;6.26;100.00
63115;BME280;49208;50.874;6.466;2023-02-21T08:20:02;100912.28;;;6.32;100.00
63115;BME280;49208;50.874;6.466;2023-02-21T08:22:28;100919.25;;;6.39;100.00
63115;BME280;49208;50.874;6.466;2023-02-21T08:24:54;100920.03;;;6.47;100.00
63115;BME280;49208;50.874;6.466;2023-02-21T08:27:19;100914.75;;;6.48;100.00
63115;BME280;49208;50.874;6.466;2023-02-21T08:29:49;100914.72;;;6.52;100.00
63115;BME280;49208;50.874;6.466;2023-02-21T08:32:14;100909.41;;;6.53;100.00
63115;BME280;49208;50.874;6.466;2023-02-21T08:34:40;100911.97;;;6.59;100.00
63115;BME280;49208;50.874;6.466;2023-02-21T08:37:05;100912.78;;;6.66;100.00
63115;BME280;49208;50.874;6.466;2023-02-21T08:39:38;100917.97;;;6.74;100.00
63115;BME280;49208;50.874;6.466;2023-02-21T08:42:04;100911.72;;;6.81;100.00
63115;BME280;49208;50.874;6.466;2023-02-21T08:44:29;100913.41;;;6.86;100.00
63115;BME280;49208;50.874;6.466;2023-02-21T08:46:54;100898.38;;;6.88;100.00
63115;BME280;49208;50.874;6.466;2023-02-21T08:49:20;100908.03;;;6.93;100.00
63115;BME280;49208;50.874;6.466;2023-02-21T08:51:45;100906.25;;;6.95;100.00
63115;BME280;49208;50.874;6.466;2023-02-21T08:54:11;100898.28;;;6.96;100.00
63115;BME280;49208;50.874;6.466;2023-02-21T08:56:37;100894.75;;;6.97;100.00
63115;BME280;49208;50.874;6.466;2023-02-21T08:59:03;100900.00;;;6.99;100.00
63115;BME280;49208;50.874;6.466;2023-02-21T09:01:32;100897.34;;;7.02;100.00
63115;BME280;49208;50.874;6.466;2023-02-21T09:03:57;100898.16;;;7.05;100.00
63115;BME280;49208;50.874;6.466;2023-02-21T09:06:23;100904.38;;;7.03;100.00
63115;BME280;49208;50.874;6.466;2023-02-21T09:08:48;100905.28;;;7.00;100.00
63115;BME280;49208;50.874;6.466;2023-02-21T09:11:13;100898.28;;;6.98;100.00
63115;BME280;49208;50.874;6.466;2023-02-21T09:13:39;100891.19;;;6.98;100.00
63115;BME280;49208;50.874;6.466;2023-02-21T09:16:06;100890.31;;;6.99;100.00
63115;BME280;49208;50.874;6.466;2023-02-21T09:18:31;100899.91;;;7.06;100.00
63115;BME280;49208;50.874;6.466;2023-02-21T09:20:57;100896.34;;;7.09;100.00
63115;BME280;49208;50.874;6.466;2023-02-21T09:23:24;100898.97;;;7.12;100.00
63115;BME280;49208;50.874;6.466;2023-02-21T09:25:50;100897.16;;;7.14;100.00
63115;BME280;49208;50.874;6.466;2023-02-21T09:28:16;100898.88;;;7.18;100.00
63115;BME280;49208;50.874;6.466;2023-02-21T09:30:42;100887.28;;;7.24;100.00
63115;BME280;49208;50.874;6.466;2023-02-21T09:33:08;100884.63;;;7.25;100.00
63115;BME280;49208;50.874;6.466;2023-02-21T09:35:34;100885.41;;;7.34;100.00
63115;BME280;49208;50.874;6.466;2023-02-21T09:38:00;100873.84;;;7.38;100.00
63115;BME280;49208;50.874;6.466;2023-02-21T09:43:11;100878.97;;;7.48;100.00
63115;BME280;49208;50.874;6.466;2023-02-21T09:45:39;100880.69;;;7.51;100.00
63115;BME280;49208;50.874;6.466;2023-02-21T09:48:10;100876.34;;;7.48;100.00
63115;BME280;49208;50.874;6.466;2023-02-21T09:50:44;100881.69;;;7.45;100.00
63115;BME280;49208;50.874;6.466;2023-02-21T09:53:15;100880.84;;;7.43;100.00
63115;BME280;49208;50.874;6.466;2023-02-21T09:55:42;100879.94;;;7.44;100.00
63115;BME280;49208;50.874;6.466;2023-02-21T09:58:14;100883.34;;;7.51;100.00
63115;BME280;49208;50.874;6.466;2023-02-21T10:00:40;100868.31;;;7.53;100.00
63115;BME280;49208;50.874;6.466;2023-02-21T10:03:44;100873.66;;;7.52;100.00
63115;BME280;49208;50.874;6.466;2023-02-21T10:06:26;100875.47;;;7.46;100.00
63115;BME280;49208;50.874;6.466;2023-02-21T10:09:45;100871.03;;;7.48;100.00
63115;BME280;49208;50.874;6.466;2023-02-21T10:14:32;100867.25;;;7.63;100.00
63115;BME280;49208;50.874;6.466;2023-02-21T10:17:23;100868.94;;;7.69;100.00
63115;BME280;49208;50.874;6.466;2023-02-21T10:19:59;100867.00;;;7.80;100.00
63115;BME280;49208;50.874;6.466;2023-02-21T10:22:33;100864.94;;;7.95;100.00
63115;BME280;49208;50.874;6.466;2023-02-21T10:25:00;100876.28;;;8.03;100.00
63115;BME280;49208;50.874;6.466;2023-02-21T10:27:29;100874.34;;;8.14;100.00
63115;BME280;49208;50.874;6.466;2023-02-21T10:32:28;100873.41;;;8.15;100.00
63115;BME280;49208;50.874;6.466;2023-02-21T10:34:54;100869.91;;;8.13;100.00
63115;BME280;49208;50.874;6.466;2023-02-21T10:37:42;100868.22;;;8.09;100.00
63115;BME280;49208;50.874;6.466;2023-02-21T10:42:55;100870.00;;;8.08;100.00
63115;BME280;49208;50.874;6.466;2023-02-21T10:45:32;100864.72;;;8.07;99.74
63115;BME280;49208;50.874;6.466;2023-02-21T10:48:06;100862.06;;;8.08;99.35
63115;BME280;49208;50.874;6.466;2023-02-21T10:53:30;100866.25;;;8.22;99.91
63115;BME280;49208;50.874;6.466;2023-02-21T10:58:33;100862.41;;;8.37;97.42
63115;BME280;49208;50.874;6.466;2023-02-21T11:01:14;100864.97;;;8.43;98.35
63115;BME280;49208;50.874;6.466;2023-02-21T11:03:52;100853.28;;;8.53;97.51
63115;BME280;49208;50.874;6.466;2023-02-21T11:08:55;100850.03;;;8.81;97.43
63115;BME280;49208;50.874;6.466;2023-02-21T11:11:39;100855.03;;;8.95;97.08
63115;BME280;49208;50.874;6.466;2023-02-21T11:16:42;100837.47;;;9.26;95.05
63115;BME280;49208;50.874;6.466;2023-02-21T11:19:12;100838.84;;;9.43;94.78
63115;BME280;49208;50.874;6.466;2023-02-21T11:21:39;100829.56;;;9.61;94.34
63115;BME280;49208;50.874;6.466;2023-02-21T11:24:06;100831.88;;;9.73;93.32
63115;BME280;49208;50.874;6.466;2023-02-21T11:26:43;100829.78;;;9.86;92.97
63115;BME280;49208;50.874;6.466;2023-02-21T11:29:19;100839.13;;;10.02;90.87
63115;BME280;49208;50.874;6.466;2023-02-21T11:31:47;100823.22;;;9.99;89.65
63115;BME280;49208;50.874;6.466;2023-02-21T11:34:13;100822.06;;;10.09;90.32
63115;BME280;49208;50.874;6.466;2023-02-21T11:36:41;100814.78;;;10.16;89.90
63115;BME280;49208;50.874;6.466;2023-02-21T11:39:25;100810.91;;;10.29;87.82
63115;BME280;49208;50.874;6.466;2023-02-21T11:44:25;100812.13;;;10.16;86.29
63115;BME280;49208;50.874;6.466;2023-02-21T11:47:15;100801.81;;;10.37;88.69
63115;BME280;49208;50.874;6.466;2023-02-21T11:50:07;100797.22;;;10.71;87.42
63115;BME280;49208;50.874;6.466;2023-02-21T11:52:39;100790.50;;;11.16;87.72
63115;BME280;49208;50.874;6.466;2023-02-21T11:55:16;100797.44;;;11.48;82.42
63115;BME280;49208;50.874;6.466;2023-02-21T11:58:21;100775.63;;;11.37;80.53
63115;BME280;49208;50.874;6.466;2023-02-21T12:01:11;100769.66;;;11.29;84.16
63115;BME280;49208;50.874;6.466;2023-02-21T12:03:42;100776.94;;;11.24;80.42
63115;BME280;49208;50.874;6.466;2023-02-21T12:12:03;100768.22;;;10.62;83.47
63115;BME280;49208;50.874;6.466;2023-02-21T12:20:05;100749.06;;;10.79;86.53
63115;BME280;49208;50.874;6.466;2023-02-21T12:28:43;100736.53;;;11.36;82.68
63115;BME280;49208;50.874;6.466;2023-02-21T12:31:29;100740.63;;;11.46;80.52
63115;BME280;49208;50.874;6.466;2023-02-21T12:39:56;100726.22;;;11.27;81.26
63115;BME280;49208;50.874;6.466;2023-02-21T12:42:48;100723.00;;;11.42;80.91
63115;BME280;49208;50.874;6.466;2023-02-21T12:47:59;100719.19;;;11.49;80.40
63115;BME280;49208;50.874;6.466;2023-02-21T12:50:34;100708.97;;;11.37;81.52
63115;BME280;49208;50.874;6.466;2023-02-21T12:53:20;100708.09;;;11.37;81.55
63115;BME280;49208;50.874;6.466;2023-02-21T12:55:53;100707.91;;;11.41;81.01
63115;BME280;49208;50.874;6.466;2023-02-21T13:01:13;100708.59;;;11.48;80.23
63115;BME280;49208;50.874;6.466;2023-02-21T13:06:35;100704.59;;;11.60;79.92
63115;BME280;49208;50.874;6.466;2023-02-21T13:11:48;100689.66;;;11.56;81.37
63115;BME280;49208;50.874;6.466;2023-02-21T13:14:26;100699.13;;;11.64;80.61
63115;BME280;49208;50.874;6.466;2023-02-21T13:16:52;100696.56;;;11.61;80.34
63115;BME280;49208;50.874;6.466;2023-02-21T13:19:19;100693.22;;;11.56;80.43
63115;BME280;49208;50.874;6.466;2023-02-21T13:21:58;100687.88;;;11.31;80.98
63115;BME280;49208;50.874;6.466;2023-02-21T13:32:49;100671.78;;;11.07;83.00
63115;BME280;49208;50.874;6.466;2023-02-21T13:35:19;100676.88;;;11.15;82.90
63115;BME280;49208;50.874;6.466;2023-02-21T13:37:47;100674.16;;;10.90;82.87
63115;BME280;49208;50.874;6.466;2023-02-21T13:40:20;100668.22;;;11.08;82.95
63115;BME280;49208;50.874;6.466;2023-02-21T13:43:04;100654.72;;;11.13;82.92
63115;BME280;49208;50.874;6.466;2023-02-21T13:45:31;100662.38;;;11.22;82.93
63115;BME280;49208;50.874;6.466;2023-02-21T13:53:27;100649.66;;;11.05;82.77
63115;BME280;49208;50.874;6.466;2023-02-21T13:58:37;100648.31;;;10.94;83.04
63115;BME280;49208;50.874;6.466;2023-02-21T14:03:53;100644.69;;;10.95;83.90
63115;BME280;49208;50.874;6.466;2023-02-21T14:06:36;100634.81;;;10.98;84.84
63115;BME280;49208;50.874;6.466;2023-02-21T14:09:20;100634.09;;;10.93;84.61
63115;BME280;49208;50.874;6.466;2023-02-21T14:11:48;100633.06;;;10.97;84.70
63115;BME280;49208;50.874;6.466;2023-02-21T14:14:22;100626.91;;;10.95;85.45
63115;BME280;49208;50.874;6.466;2023-02-21T14:16:52;100625.56;;;10.83;84.78
63115;BME280;49208;50.874;6.466;2023-02-21T14:22:10;100631.09;;;10.77;85.52
63115;BME280;49208;50.874;6.466;2023-02-21T14:24:40;100628.56;;;10.72;85.47
63115;BME280;49208;50.874;6.466;2023-02-21T14:29:44;100625.34;;;10.63;86.56
63115;BME280;49208;50.874;6.466;2023-02-21T14:34:39;100620.31;;;10.54;87.46
63115;BME280;49208;50.874;6.466;2023-02-21T14:37:33;100622.16;;;10.51;87.75
63115;BME280;49208;50.874;6.466;2023-02-21T14:40:23;100612.66;;;10.44;88.95
63115;BME280;49208;50.874;6.466;2023-02-21T14:43:08;100615.38;;;10.41;89.07
63115;BME280;49208;50.874;6.466;2023-02-21T15:02:17;100607.88;;;10.26;89.99
63115;BME280;49208;50.874;6.466;2023-02-21T15:08:06;100613.44;;;10.18;90.42
63115;BME280;49208;50.874;6.466;2023-02-21T15:10:32;100613.53;;;10.15;90.92
63115;BME280;49208;50.874;6.466;2023-02-21T15:13:04;100605.59;;;10.14;90.95
63115;BME280;49208;50.874;6.466;2023-02-21T15:15:40;100607.50;;;10.08;91.37
63115;BME280;49208;50.874;6.466;2023-02-21T15:18:07;100606.91;;;10.00;91.87
63115;BME280;49208;50.874;6.466;2023-02-21T15:20:35;100603.47;;;9.97;92.05
63115;BME280;49208;50.874;6.466;2023-02-21T15:23:15;100600.84;;;9.95;92.57
63115;BME280;49208;50.874;6.466;2023-02-21T15:25:44;100606.28;;;9.92;92.50
63115;BME280;49208;50.874;6.466;2023-02-21T15:28:28;100613.50;;;9.87;92.86
63115;BME280;49208;50.874;6.466;2023-02-21T15:31:14;100603.09;;;9.79;93.21
63115;BME280;49208;50.874;6.466;2023-02-21T15:33:42;100604.22;;;9.70;93.78
63115;BME280;49208;50.874;6.466;2023-02-21T15:41:24;100601.03;;;9.59;94.54
63115;BME280;49208;50.874;6.466;2023-02-21T15:43:56;100603.75;;;9.56;94.53
63115;BME280;49208;50.874;6.466;2023-02-21T15:46:30;100603.06;;;9.49;94.96
63115;BME280;49208;50.874;6.466;2023-02-21T15:48:59;100614.69;;;9.45;95.05
63115;BME280;49208;50.874;6.466;2023-02-21T15:51:25;100606.06;;;9.37;95.41
63115;BME280;49208;50.874;6.466;2023-02-21T15:54:08;100605.56;;;9.24;96.25
63115;BME280;49208;50.874;6.466;2023-02-21T15:56:34;100599.44;;;9.21;96.48
63115;BME280;49208;50.874;6.466;2023-02-21T15:59:17;100598.78;;;9.13;97.01
63115;BME280;49208;50.874;6.466;2023-02-21T16:01:43;100596.34;;;9.05;97.37
63115;BME280;49208;50.874;6.466;2023-02-21T16:04:18;100596.53;;;8.99;97.66
63115;BME280;49208;50.874;6.466;2023-02-21T16:06:47;100601.06;;;8.94;98.21
63115;BME280;49208;50.874;6.466;2023-02-21T16:14:38;100598.88;;;8.75;99.36
63115;BME280;49208;50.874;6.466;2023-02-21T16:19:37;100591.31;;;8.60;99.74
63115;BME280;49208;50.874;6.466;2023-02-21T16:22:28;100591.50;;;8.52;100.00
63115;BME280;49208;50.874;6.466;2023-02-21T16:27:37;100591.88;;;8.35;100.00
63115;BME280;49208;50.874;6.466;2023-02-21T16:30:04;100591.19;;;8.27;100.00
63115;BME280;49208;50.874;6.466;2023-02-21T16:32:30;100595.00;;;8.15;100.00
63115;BME280;49208;50.874;6.466;2023-02-21T16:34:55;100590.88;;;8.03;100.00
63115;BME280;49208;50.874;6.466;2023-02-21T16:37:21;100592.00;;;7.93;100.00
63115;BME280;49208;50.874;6.466;2023-02-21T16:39:47;100592.22;;;7.82;100.00
63115;BME280;49208;50.874;6.466;2023-02-21T16:42:13;100592.44;;;7.72;100.00
63115;BME280;49208;50.874;6.466;2023-02-21T16:44:41;100593.53;;;7.61;100.00
63115;BME280;49208;50.874;6.466;2023-02-21T16:47:07;100606.13;;;7.52;100.00
63115;BME280;49208;50.874;6.466;2023-02-21T16:49:37;100596.63;;;7.41;100.00
63115;BME280;49208;50.874;6.466;2023-02-21T16:52:02;100597.69;;;7.31;100.00
63115;BME280;49208;50.874;6.466;2023-02-21T16:54:28;100603.13;;;7.23;100.00
63115;BME280;49208;50.874;6.466;2023-02-21T16:56:53;100600.59;;;7.17;100.00
63115;BME280;49208;50.874;6.466;2023-02-21T16:59:20;100608.75;;;7.08;100.00
63115;BME280;49208;50.874;6.466;2023-02-21T17:01:46;100601.78;;;7.01;100.00
63115;BME280;49208;50.874;6.466;2023-02-21T17:04:17;100606.34;;;6.93;100.00
63115;BME280;49208;50.874;6.466;2023-02-21T17:06:46;100603.88;;;6.83;100.00
63115;BME280;49208;50.874;6.466;2023-02-21T17:09:18;100609.31;;;6.74;100.00
63115;BME280;49208;50.874;6.466;2023-02-21T17:11:44;100606.81;;;6.66;100.00
63115;BME280;49208;50.874;6.466;2023-02-21T17:14:09;100606.94;;;6.59;100.00
63115;BME280;49208;50.874;6.466;2023-02-21T17:16:34;100602.66;;;6.52;100.00
63115;BME280;49208;50.874;6.466;2023-02-21T17:19:01;100598.38;;;6.44;100.00
63115;BME280;49208;50.874;6.466;2023-02-21T17:21:27;100610.81;;;6.38;100.00
63115;BME280;49208;50.874;6.466;2023-02-21T17:23:52;100595.06;;;6.30;100.00
63115;BME280;49208;50.874;6.466;2023-02-21T17:26:18;100608.38;;;6.22;100.00
63115;BME280;49208;50.874;6.466;2023-02-21T17:28:43;100606.69;;;6.18;100.00
63115;BME280;49208;50.874;6.466;2023-02-21T17:31:09;100601.53;;;6.11;100.00
63115;BME280;49208;50.874;6.466;2023-02-21T17:33:39;100599.00;;;6.03;100.00
63115;BME280;49208;50.874;6.466;2023-02-21T17:36:05;100598.22;;;5.93;100.00
63115;BME280;49208;50.874;6.466;2023-02-21T17:38:32;100598.34;;;5.85;100.00
63115;BME280;49208;50.874;6.466;2023-02-21T17:40:57;100607.25;;;5.77;100.00
63115;BME280;49208;50.874;6.466;2023-02-21T17:43:23;100609.13;;;5.69;100.00
63115;BME280;49208;50.874;6.466;2023-02-21T17:45:48;100603.06;;;5.60;100.00
63115;BME280;49208;50.874;6.466;2023-02-21T17:48:14;100594.38;;;5.52;100.00
63115;BME280;49208;50.874;6.466;2023-02-21T17:50:39;100596.19;;;5.47;100.00
63115;BME280;49208;50.874;6.466;2023-02-21T17:53:04;100600.66;;;5.40;100.00
63115;BME280;49208;50.874;6.466;2023-02-21T17:55:30;100606.91;;;5.33;100.00
63115;BME280;49208;50.874;6.466;2023-02-21T17:57:57;100602.59;;;5.26;100.00
63115;BME280;49208;50.874;6.466;2023-02-21T18:00:25;100606.16;;;5.22;100.00
63115;BME280;49208;50.874;6.466;2023-02-21T18:02:52;100606.22;;;5.14;100.00
63115;BME280;49208;50.874;6.466;2023-02-21T18:05:18;100608.94;;;5.08;100.00
63115;BME280;49208;50.874;6.466;2023-02-21T18:07:48;100606.41;;;5.00;100.00
63115;BME280;49208;50.874;6.466;2023-02-21T18:10:15;100602.91;;;4.94;100.00
63115;BME280;49208;50.874;6.466;2023-02-21T18:12:41;100607.38;;;4.89;100.00
63115;BME280;49208;50.874;6.466;2023-02-21T18:15:07;100616.22;;;4.84;100.00
63115;BME280;49208;50.874;6.466;2023-02-21T18:17:34;100611.00;;;4.80;100.00
63115;BME280;49208;50.874;6.466;2023-02-21T18:20:00;100611.91;;;4.77;100.00
63115;BME280;49208;50.874;6.466;2023-02-21T18:22:25;100611.03;;;4.74;100.00
63115;BME280;49208;50.874;6.466;2023-02-21T18:24:50;100610.19;;;4.70;100.00
63115;BME280;49208;50.874;6.466;2023-02-21T18:27:16;100611.09;;;4.68;100.00
63115;BME280;49208;50.874;6.466;2023-02-21T18:29:41;100611.97;;;4.66;100.00
63115;BME280;49208;50.874;6.466;2023-02-21T18:32:06;100611.09;;;4.66;100.00
63115;BME280;49208;50.874;6.466;2023-02-21T18:34:32;100608.47;;;4.68;100.00
63115;BME280;49208;50.874;6.466;2023-02-21T18:36:57;100606.69;;;4.70;100.00
63115;BME280;49208;50.874;6.466;2023-02-21T18:39:23;100611.03;;;4.72;100.00
63115;BME280;49208;50.874;6.466;2023-02-21T18:41:49;100611.03;;;4.75;100.00
63115;BME280;49208;50.874;6.466;2023-02-21T18:44:14;100609.22;;;4.79;100.00
63115;BME280;49208;50.874;6.466;2023-02-21T18:46:48;100602.16;;;4.84;100.00
63115;BME280;49208;50.874;6.466;2023-02-21T18:49:13;100610.91;;;4.88;100.00
63115;BME280;49208;50.874;6.466;2023-02-21T18:51:40;100611.75;;;4.91;100.00
63115;BME280;49208;50.874;6.466;2023-02-21T18:54:06;100611.69;;;4.96;100.00
63115;BME280;49208;50.874;6.466;2023-02-21T18:56:31;100609.03;;;4.99;100.00
63115;BME280;49208;50.874;6.466;2023-02-21T18:58:58;100609.00;;;5.03;100.00
63115;BME280;49208;50.874;6.466;2023-02-21T19:01:23;100606.34;;;5.06;100.00
63115;BME280;49208;50.874;6.466;2023-02-21T19:03:51;100602.78;;;5.11;100.00
63115;BME280;49208;50.874;6.466;2023-02-21T19:06:18;100596.56;;;5.15;100.00
63115;BME280;49208;50.874;6.466;2023-02-21T19:08:45;100599.16;;;5.21;100.00
63115;BME280;49208;50.874;6.466;2023-02-21T19:11:12;100594.69;;;5.26;100.00
63115;BME280;49208;50.874;6.466;2023-02-21T19:13:39;100596.34;;;5.33;100.00
63115;BME280;49208;50.874;6.466;2023-02-21T19:16:04;100596.28;;;5.39;100.00
63115;BME280;49208;50.874;6.466;2023-02-21T19:18:30;100593.53;;;5.47;100.00
63115;BME280;49208;50.874;6.466;2023-02-21T19:20:56;100590.84;;;5.53;100.00
63115;BME280;49208;50.874;6.466;2023-02-21T19:23:21;100588.97;;;5.60;100.00
63115;BME280;49208;50.874;6.466;2023-02-21T19:25:48;100592.44;;;5.66;100.00
63115;BME280;49208;50.874;6.466;2023-02-21T19:28:13;100592.31;;;5.73;100.00
63115;BME280;49208;50.874;6.466;2023-02-21T19:30:39;100582.59;;;5.76;100.00
63115;BME280;49208;50.874;6.466;2023-02-21T19:33:06;100587.81;;;5.82;100.00
63115;BME280;49208;50.874;6.466;2023-02-21T19:35:33;100579.88;;;5.84;100.00
63115;BME280;49208;50.874;6.466;2023-02-21T19:38:04;100582.44;;;5.87;100.00
63115;BME280;49208;50.874;6.466;2023-02-21T19:40:30;100582.44;;;5.88;100.00
63115;BME280;49208;50.874;6.466;2023-02-21T19:42:56;100583.31;;;5.89;100.00
63115;BME280;49208;50.874;6.466;2023-02-21T19:45:22;100579.78;;;5.88;100.00
63115;BME280;49208;50.874;6.466;2023-02-21T19:47:47;100572.78;;;5.87;100.00
63115;BME280;49208;50.874;6.466;2023-02-21T19:50:13;100582.44;;;5.88;100.00
63115;BME280;49208;50.874;6.466;2023-02-21T19:52:38;100573.66;;;5.88;100.00
63115;BME280;49208;50.874;6.466;2023-02-21T19:55:04;100568.34;;;5.90;100.00
63115;BME280;49208;50.874;6.466;2023-02-21T19:57:30;100584.13;;;5.93;100.00
63115;BME280;49208;50.874;6.466;2023-02-21T19:59:55;100584.13;;;5.94;100.00
63115;BME280;49208;50.874;6.466;2023-02-21T20:02:21;100585.88;;;5.97;100.00
63115;BME280;49208;50.874;6.466;2023-02-21T20:04:46;100587.63;;;5.98;100.00
63115;BME280;49208;50.874;6.466;2023-02-21T20:07:13;100582.34;;;5.98;100.00
63115;BME280;49208;50.874;6.466;2023-02-21T20:09:39;100577.91;;;6.00;100.00
63115;BME280;49208;50.874;6.466;2023-02-21T20:12:05;100583.13;;;6.03;100.00
63115;BME280;49208;50.874;6.466;2023-02-21T20:14:31;100574.34;;;6.02;100.00
63115;BME280;49208;50.874;6.466;2023-02-21T20:16:56;100569.91;;;6.04;100.00
63115;BME280;49208;50.874;6.466;2023-02-21T20:19:22;100575.19;;;6.06;100.00
63115;BME280;49208;50.874;6.466;2023-02-21T20:21:48;100577.75;;;6.12;100.00
63115;BME280;49208;50.874;6.466;2023-02-21T20:24:17;100572.44;;;6.12;100.00
63115;BME280;49208;50.874;6.466;2023-02-21T20:26:42;100572.41;;;6.14;100.00
63115;BME280;49208;50.874;6.466;2023-02-21T20:29:08;100571.53;;;6.13;100.00
63115;BME280;49208;50.874;6.466;2023-02-21T20:31:33;100571.59;;;6.10;100.00
63115;BME280;49208;50.874;6.466;2023-02-21T20:34:02;100570.75;;;6.08;100.00
63115;BME280;49208;50.874;6.466;2023-02-21T20:36:35;100575.13;;;6.09;100.00
63115;BME280;49208;50.874;6.466;2023-02-21T20:39:02;100569.84;;;6.07;100.00
63115;BME280;49208;50.874;6.466;2023-02-21T20:41:33;100566.41;;;6.02;100.00
63115;BME280;49208;50.874;6.466;2023-02-21T20:44:00;100572.59;;;6.01;100.00
63115;BME280;49208;50.874;6.466;2023-02-21T20:46:26;100564.72;;;5.98;100.00
63115;BME280;49208;50.874;6.466;2023-02-21T20:48:53;100572.66;;;5.97;100.00
63115;BME280;49208;50.874;6.466;2023-02-21T20:51:27;100563.00;;;5.93;100.00
63115;BME280;49208;50.874;6.466;2023-02-21T20:53:52;100556.00;;;5.92;100.00
63115;BME280;49208;50.874;6.466;2023-02-21T20:56:18;100558.59;;;5.93;100.00
63115;BME280;49208;50.874;6.466;2023-02-21T20:58:43;100563.88;;;5.95;100.00
63115;BME280;49208;50.874;6.466;2023-02-21T21:01:12;100557.72;;;5.91;100.00
63115;BME280;49208;50.874;6.466;2023-02-21T21:03:39;100553.44;;;5.85;100.00
63115;BME280;49208;50.874;6.466;2023-02-21T21:06:09;100555.22;;;5.83;100.00
63115;BME280;49208;50.874;6.466;2023-02-21T21:08:35;100549.94;;;5.83;100.00
63115;BME280;49208;50.874;6.466;2023-02-21T21:11:00;100543.81;;;5.80;100.00
63115;BME280;49208;50.874;6.466;2023-02-21T21:13:26;100547.31;;;5.82;100.00
63115;BME280;49208;50.874;6.466;2023-02-21T21:15:51;100549.09;;;5.80;100.00
63115;BME280;49208;50.874;6.466;2023-02-21T21:18:17;100537.69;;;5.79;100.00
63115;BME280;49208;50.874;6.466;2023-02-21T21:20:42;100549.97;;;5.79;100.00
63115;BME280;49208;50.874;6.466;2023-02-21T21:23:07;100542.13;;;5.76;100.00
63115;BME280;49208;50.874;6.466;2023-02-21T21:25:33;100535.19;;;5.69;100.00
63115;BME280;49208;50.874;6.466;2023-02-21T21:28:00;100534.34;;;5.66;100.00
63115;BME280;49208;50.874;6.466;2023-02-21T21:30:26;100534.34;;;5.65;100.00
63115;BME280;49208;50.874;6.466;2023-02-21T21:32:52;100529.94;;;5.64;100.00
63115;BME280;49208;50.874;6.466;2023-02-21T21:35:18;100529.06;;;5.65;100.00
63115;BME280;49208;50.874;6.466;2023-02-21T21:37:45;100522.94;;;5.64;100.00
63115;BME280;49208;50.874;6.466;2023-02-21T21:40:11;100526.38;;;5.68;100.00
63115;BME280;49208;50.874;6.466;2023-02-21T21:42:47;100530.88;;;5.61;100.00
63115;BME280;49208;50.874;6.466;2023-02-21T21:45:18;100522.16;;;5.55;100.00
63115;BME280;49208;50.874;6.466;2023-02-21T21:47:45;100523.03;;;5.54;100.00
63115;BME280;49208;50.874;6.466;2023-02-21T21:50:11;100519.59;;;5.50;100.00
63115;BME280;49208;50.874;6.466;2023-02-21T21:52:40;100519.59;;;5.50;100.00
63115;BME280;49208;50.874;6.466;2023-02-21T21:55:06;100509.91;;;5.49;100.00
63115;BME280;49208;50.874;6.466;2023-02-21T21:57:34;100503.78;;;5.45;100.00
63115;BME280;49208;50.874;6.466;2023-02-21T21:59:59;100500.38;;;5.40;100.00
63115;BME280;49208;50.874;6.466;2023-02-21T22:02:25;100507.41;;;5.40;100.00